createdAt,value
2019-04-10T00:00:28.628Z,98.62
2019-04-10T00:02:57.796Z,83.97
2019-04-10T00:05:26.428Z,83.65
2019-04-10T00:07:55.479Z,88.05
2019-04-10T00:10:24.095Z,84.97
2019-04-10T00:12:52.539Z,95.80
2019-04-10T00:15:22.122Z,86.67
2019-04-10T00:17:51.487Z,89.00
2019-04-10T00:20:20.451Z,88.10
2019-04-10T00:22:49.069Z,97.05
2019-04-10T00:25:17.493Z,93.90
2019-04-10T00:27:45.938Z,93.87
2019-04-10T00:30:14.355Z,96.57
2019-04-10T00:32:43.862Z,97.62
2019-04-10T00:35:12.926Z,94.70
2019-04-10T00:37:41.554Z,94.30
2019-04-10T00:40:10.943Z,93.45
2019-04-10T00:42:39.470Z,97.45
2019-04-10T00:45:09.093Z,95.10
2019-04-10T00:47:37.712Z,96.82
2019-04-10T00:50:06.807Z,99.17
2019-04-10T00:52:35.243Z,101.53
2019-04-10T00:55:04.160Z,92.55
2019-04-10T00:57:33.735Z,95.25
2019-04-10T01:00:02.386Z,95.62
2019-04-10T01:02:30.819Z,106.55
2019-04-10T01:04:59.271Z,98.47
2019-04-10T01:07:37.635Z,94.92
2019-04-10T01:09:57.878Z,101.58
2019-04-10T01:12:26.309Z,88.80
2019-04-10T01:14:54.763Z,99.87
2019-04-10T01:17:24.038Z,103.25
2019-04-10T01:19:52.819Z,97.33
2019-04-10T01:22:21.322Z,103.67
2019-04-10T01:24:50.230Z,110.03
2019-04-10T01:27:18.799Z,95.72
2019-04-10T01:29:47.243Z,94.72
2019-04-10T01:32:15.673Z,102.07
2019-04-10T01:34:44.147Z,109.65
2019-04-10T01:37:12.580Z,96.97
2019-04-10T01:39:42.265Z,105.67
2019-04-10T01:42:10.826Z,101.47
2019-04-10T01:44:39.276Z,103.20
2019-04-10T01:47:07.851Z,103.20
2019-04-10T01:49:36.332Z,104.05
2019-04-10T01:52:04.910Z,96.12
2019-04-10T01:54:33.383Z,109.95
2019-04-10T01:57:02.045Z,104.45
2019-04-10T01:59:32.184Z,99.62
2019-04-10T02:02:03.073Z,97.60
2019-04-10T02:04:31.578Z,108.78
2019-04-10T02:07:00.044Z,110.20
2019-04-10T02:09:29.692Z,103.83
2019-04-10T02:11:58.548Z,113.20
2019-04-10T02:14:28.021Z,104.83
2019-04-10T02:16:57.058Z,108.03
2019-04-10T02:19:26.128Z,111.97
2019-04-10T02:21:54.666Z,102.60
2019-04-10T02:24:23.167Z,102.60
2019-04-10T02:26:51.944Z,108.60
2019-04-10T02:29:20.533Z,118.35
2019-04-10T02:31:50.562Z,101.60
2019-04-10T02:34:19.494Z,103.53
2019-04-10T02:36:50.678Z,102.70
2019-04-10T02:39:27.397Z,103.58
2019-04-10T02:41:49.965Z,104.27
2019-04-10T02:44:18.733Z,123.25
2019-04-10T02:46:47.569Z,107.25
2019-04-10T02:49:16.484Z,100.72
2019-04-10T02:51:45.469Z,114.77
2019-04-10T02:54:15.354Z,94.95
2019-04-10T02:56:45.593Z,111.62
2019-04-10T02:59:15.524Z,104.80
2019-04-10T03:01:44.162Z,106.40
2019-04-10T03:04:13.347Z,100.18
2019-04-10T03:06:42.881Z,108.65
2019-04-10T03:09:28.882Z,101.20
2019-04-10T03:11:42.476Z,99.70
2019-04-10T03:14:12.487Z,107.60
2019-04-10T03:16:41.745Z,100.70
2019-04-10T03:19:11.533Z,103.53
2019-04-10T03:21:40.201Z,99.52
2019-04-10T03:24:09.535Z,106.97
2019-04-10T03:26:38.158Z,98.78
2019-04-10T03:29:07.354Z,103.07
2019-04-10T03:31:36.934Z,112.57
2019-04-10T03:34:20.557Z,103.95
2019-04-10T03:36:47.590Z,96.85
2019-04-10T03:39:17.284Z,110.30
2019-04-10T03:41:45.999Z,103.53
2019-04-10T03:44:14.564Z,109.90
2019-04-10T03:46:43.060Z,104.92
2019-04-10T03:49:11.869Z,109.55
2019-04-10T03:51:40.844Z,109.50
2019-04-10T03:54:09.345Z,103.95
2019-04-10T03:56:38.181Z,109.17
2019-04-10T03:59:06.706Z,100.75
2019-04-10T04:01:35.383Z,100.42
2019-04-10T04:04:04.882Z,107.75
2019-04-10T04:06:33.493Z,111.97
2019-04-10T04:09:09.013Z,113.47
2019-04-10T04:11:32.110Z,107.35
2019-04-10T04:14:00.566Z,101.45
2019-04-10T04:16:29.025Z,98.97
2019-04-10T04:18:57.690Z,105.55
2019-04-10T04:21:26.229Z,107.32
2019-04-10T04:23:57.224Z,113.85
2019-04-10T04:26:25.725Z,100.20
2019-04-10T04:28:54.255Z,100.18
2019-04-10T04:31:22.910Z,99.60
2019-04-10T04:33:51.423Z,97.85
2019-04-10T04:36:20.408Z,100.72
2019-04-10T04:38:49.154Z,99.65
2019-04-10T04:41:17.771Z,95.42
2019-04-10T04:43:47.614Z,106.80
2019-04-10T04:46:16.451Z,116.60
2019-04-10T04:48:45.336Z,99.42
2019-04-10T04:51:13.909Z,96.80
2019-04-10T04:53:42.514Z,103.42
2019-04-10T04:56:11.504Z,106.10
2019-04-10T04:58:40.069Z,105.52
2019-04-10T05:01:08.535Z,104.65
2019-04-10T05:03:37.557Z,105.45
2019-04-10T05:06:06.174Z,106.17
2019-04-10T05:08:34.612Z,96.05
2019-04-10T05:11:04.229Z,104.85
2019-04-10T05:13:32.834Z,101.62
2019-04-10T05:16:01.287Z,98.72
2019-04-10T05:18:31.704Z,102.35
2019-04-10T05:21:00.914Z,92.10
2019-04-10T05:23:29.498Z,94.13
2019-04-10T05:25:58.980Z,100.27
2019-04-10T05:28:29.459Z,99.15
2019-04-10T05:30:58.930Z,93.95
2019-04-10T05:33:27.526Z,101.38
2019-04-10T05:35:56.941Z,99.15
2019-04-10T05:38:25.601Z,98.25
2019-04-10T05:40:55.064Z,103.42
2019-04-10T05:43:23.999Z,105.25
2019-04-10T05:45:53.080Z,100.72
2019-04-10T05:48:23.539Z,99.55
2019-04-10T05:50:57.613Z,94.25
2019-04-10T05:53:22.557Z,98.07
2019-04-10T05:55:51.664Z,100.40
2019-04-10T05:58:20.342Z,91.87
2019-04-10T06:00:49.795Z,90.32
2019-04-10T06:03:18.658Z,106.50
2019-04-10T06:05:47.247Z,95.57
2019-04-10T06:08:16.116Z,93.65
2019-04-10T06:10:45.497Z,104.20
2019-04-10T06:13:15.081Z,87.60
2019-04-10T06:15:43.917Z,93.07
2019-04-10T06:18:12.806Z,91.35
2019-04-10T06:20:42.647Z,92.97
2019-04-10T06:23:11.551Z,95.40
2019-04-10T06:25:41.938Z,93.25
2019-04-10T06:28:10.270Z,97.30
2019-04-10T06:30:39.689Z,84.80
2019-04-10T06:33:09.586Z,93.20
2019-04-10T06:35:38.251Z,87.65
2019-04-10T06:38:06.711Z,86.50
2019-04-10T06:40:35.570Z,83.58
2019-04-10T06:43:04.471Z,76.77
2019-04-10T06:45:33.594Z,79.45
2019-04-10T06:48:02.684Z,81.53
2019-04-10T06:50:31.612Z,76.53
2019-04-10T06:53:00.199Z,76.75
2019-04-10T06:55:28.694Z,76.47
2019-04-10T06:57:58.224Z,79.17
2019-04-10T07:00:28.546Z,78.28
2019-04-10T07:02:57.219Z,73.95
2019-04-10T07:05:37.012Z,73.83
2019-04-10T07:08:05.966Z,72.47
2019-04-10T07:10:32.224Z,77.47
2019-04-10T07:12:56.506Z,75.47
2019-04-10T07:15:25.636Z,74.45
2019-04-10T07:17:55.358Z,71.15
2019-04-10T07:20:24.129Z,77.15
2019-04-10T07:22:53.339Z,71.47
2019-04-10T07:25:22.009Z,77.25
2019-04-10T07:27:50.563Z,72.58
2019-04-10T07:30:19.541Z,69.50
2019-04-10T07:32:49.180Z,70.45
2019-04-10T07:35:20.265Z,76.07
2019-04-10T07:37:52.683Z,71.77
2019-04-10T07:40:18.623Z,69.75
2019-04-10T07:42:48.273Z,68.20
2019-04-10T07:45:17.515Z,71.43
2019-04-10T07:47:46.237Z,77.80
2019-04-10T07:50:16.484Z,71.73
2019-04-10T07:52:45.884Z,71.33
2019-04-10T07:55:14.919Z,69.50
2019-04-10T07:57:47.160Z,68.40
2019-04-10T08:00:16.028Z,66.97
2019-04-10T08:02:44.842Z,67.27
2019-04-10T08:05:13.648Z,61.23
2019-04-10T08:07:43.093Z,73.30
2019-04-10T08:10:12.152Z,67.97
2019-04-10T08:12:47.388Z,66.40
2019-04-10T08:15:11.215Z,65.27
2019-04-10T08:17:40.822Z,62.70
2019-04-10T08:20:10.068Z,65.67
2019-04-10T08:22:39.283Z,62.93
2019-04-10T08:25:08.874Z,63.80
2019-04-10T08:27:38.502Z,62.90
2019-04-10T08:30:10.853Z,65.83
2019-04-10T08:32:50.877Z,62.40
2019-04-10T08:35:09.123Z,63.87
2019-04-10T08:37:39.311Z,64.47
2019-04-10T08:40:09.758Z,62.07
2019-04-10T08:42:40.193Z,69.33
2019-04-10T08:45:09.218Z,59.53
2019-04-10T08:47:37.862Z,61.10
2019-04-10T08:50:07.773Z,62.47
2019-04-10T08:52:37.089Z,63.07
2019-04-10T08:55:06.108Z,61.20
2019-04-10T08:57:34.627Z,55.90
2019-04-10T09:00:04.684Z,57.10
2019-04-10T09:02:33.879Z,59.23
2019-04-10T09:05:03.521Z,54.63
2019-04-10T09:07:32.553Z,57.93
2019-04-10T09:10:01.852Z,58.27
2019-04-10T09:12:31.574Z,53.77
2019-04-10T09:15:01.340Z,52.40
2019-04-10T09:17:31.244Z,60.03
2019-04-10T09:20:00.585Z,58.40
2019-04-10T09:22:41.873Z,54.33
2019-04-10T09:25:00.570Z,53.60
2019-04-10T09:27:29.434Z,55.30
2019-04-10T09:29:57.871Z,52.13
2019-04-10T09:32:26.481Z,55.30
2019-04-10T09:34:56.059Z,55.10
2019-04-10T09:37:24.735Z,55.80
2019-04-10T09:39:53.924Z,56.70
2019-04-10T09:42:23.654Z,57.33
2019-04-10T09:44:52.823Z,55.80
2019-04-10T09:47:22.935Z,64.23
2019-04-10T09:49:51.500Z,53.40
2019-04-10T09:52:20.030Z,51.83
2019-04-10T09:54:48.921Z,54.60
2019-04-10T09:57:17.854Z,53.50
2019-04-10T09:59:47.310Z,53.73
2019-04-10T10:02:16.196Z,56.57
2019-04-10T10:04:46.012Z,49.00
2019-04-10T10:07:14.573Z,56.20
2019-04-10T10:09:43.194Z,55.43
2019-04-10T10:12:11.759Z,52.13
2019-04-10T10:14:40.213Z,57.60
2019-04-10T10:17:08.806Z,50.60
2019-04-10T10:19:39.182Z,53.27
2019-04-10T10:22:07.659Z,55.50
2019-04-10T10:24:36.224Z,59.43
2019-04-10T10:27:05.360Z,58.60
2019-04-10T10:29:33.936Z,59.60
2019-04-10T10:32:04.651Z,56.20
2019-04-10T10:34:33.226Z,55.23
2019-04-10T10:37:03.567Z,62.53
2019-04-10T10:39:32.042Z,59.97
2019-04-10T10:42:00.503Z,54.70
2019-04-10T10:44:30.052Z,55.60
2019-04-10T10:46:59.944Z,59.37
2019-04-10T10:49:28.633Z,57.37
2019-04-10T10:51:57.323Z,56.07
2019-04-10T10:54:26.820Z,57.77
2019-04-10T10:56:56.038Z,59.37
2019-04-10T10:59:25.232Z,74.63
2019-04-10T11:01:53.951Z,59.00
2019-04-10T11:04:23.262Z,58.17
2019-04-10T11:06:59.549Z,57.20
2019-04-10T11:09:22.162Z,50.03
2019-04-10T11:11:50.631Z,59.53
2019-04-10T11:14:19.191Z,61.93
2019-04-10T11:16:47.771Z,55.93
2019-04-10T11:19:17.290Z,60.70
2019-04-10T11:21:47.070Z,56.63
2019-04-10T11:24:15.630Z,56.33
2019-04-10T11:26:44.234Z,64.73
2019-04-10T11:29:14.223Z,62.93
2019-04-10T11:31:42.900Z,61.90
2019-04-10T11:34:11.416Z,59.00
2019-04-10T11:36:40.100Z,64.00
2019-04-10T11:39:18.637Z,56.63
2019-04-10T11:41:41.143Z,57.33
2019-04-10T11:44:11.350Z,68.33
2019-04-10T11:46:41.915Z,59.77
2019-04-10T11:49:13.823Z,61.60
2019-04-10T11:51:41.062Z,60.20
2019-04-10T11:54:13.017Z,54.43
2019-04-10T11:56:39.915Z,58.20
2019-04-10T11:59:11.264Z,54.30
2019-04-10T12:01:39.237Z,59.73
2019-04-10T12:04:10.227Z,56.40
2019-04-10T12:06:40.353Z,59.70
2019-04-10T12:09:40.217Z,69.10
2019-04-10T12:11:41.567Z,58.00
2019-04-10T12:14:11.118Z,63.10
2019-04-10T12:16:39.742Z,59.77
2019-04-10T12:19:08.179Z,65.00
2019-04-10T12:21:36.654Z,62.07
2019-04-10T12:24:05.381Z,61.77
2019-04-10T12:26:33.986Z,61.60
2019-04-10T12:29:02.893Z,60.83
2019-04-10T12:31:33.060Z,62.77
2019-04-10T12:34:01.579Z,59.80
2019-04-10T12:36:31.004Z,62.80
2019-04-10T12:39:00.343Z,59.70
2019-04-10T12:41:29.183Z,63.70
2019-04-10T12:43:57.679Z,62.43
2019-04-10T12:46:26.781Z,60.57
2019-04-10T12:48:55.352Z,61.20
2019-04-10T12:51:23.875Z,58.60
2019-04-10T12:53:52.366Z,57.50
2019-04-10T12:56:21.943Z,62.30
2019-04-10T12:58:50.997Z,65.60
2019-04-10T13:01:20.520Z,62.07
2019-04-10T13:03:51.521Z,65.73
2019-04-10T13:06:20.091Z,66.37
2019-04-10T13:08:57.878Z,66.30
2019-04-10T13:11:18.767Z,65.60
2019-04-10T13:13:48.392Z,65.33
2019-04-10T13:16:18.046Z,59.03
2019-04-10T13:18:46.915Z,60.30
2019-04-10T13:21:15.606Z,61.60
2019-04-10T13:23:44.766Z,63.23
2019-04-10T13:26:13.481Z,64.07
2019-04-10T13:28:41.987Z,60.47
2019-04-10T13:31:10.861Z,56.37
2019-04-10T13:33:40.518Z,64.87
2019-04-10T13:36:09.281Z,70.47
2019-04-10T13:38:38.341Z,65.57
2019-04-10T13:41:08.073Z,66.13
2019-04-10T13:43:36.700Z,64.80
2019-04-10T13:46:06.820Z,61.73
2019-04-10T13:48:35.553Z,61.30
2019-04-10T13:51:05.340Z,64.40
2019-04-10T13:53:34.275Z,56.53
2019-04-10T13:56:02.924Z,64.10
2019-04-10T13:58:31.379Z,61.00
2019-04-10T14:01:01.415Z,68.67
2019-04-10T14:03:30.140Z,61.27
2019-04-10T14:05:58.670Z,57.63
2019-04-10T14:08:40.650Z,61.80
2019-04-10T14:10:57.682Z,60.87
2019-04-10T14:13:27.486Z,60.07
2019-04-10T14:15:56.188Z,58.17
2019-04-10T14:18:24.633Z,62.60
2019-04-10T14:20:53.471Z,58.60
2019-04-10T14:23:26.618Z,62.87
2019-04-10T14:26:13.818Z,67.00
2019-04-10T14:28:43.066Z,53.20
2019-04-10T14:31:16.559Z,57.03
2019-04-10T14:33:45.381Z,60.80
2019-04-10T14:36:13.921Z,54.50
2019-04-10T14:38:43.264Z,58.67
2019-04-10T14:41:12.177Z,55.30
2019-04-10T14:43:42.687Z,53.40
2019-04-10T14:46:12.392Z,50.13
2019-04-10T14:48:40.977Z,49.00
2019-04-10T14:51:10.275Z,51.30
2019-04-10T14:53:39.408Z,53.43
2019-04-10T14:56:08.354Z,48.53
2019-04-10T14:58:37.006Z,50.20
2019-04-10T15:01:08.424Z,50.23
2019-04-10T15:03:36.210Z,44.77
2019-04-10T15:06:06.951Z,50.63
2019-04-10T15:08:35.650Z,48.10
2019-04-10T15:11:04.514Z,47.00
2019-04-10T15:13:33.917Z,42.00
2019-04-10T15:16:02.967Z,42.10
2019-04-10T15:18:31.551Z,42.03
2019-04-10T15:21:00.680Z,39.87
2019-04-10T15:23:29.670Z,45.63
2019-04-10T15:25:58.239Z,39.90
2019-04-10T15:28:27.442Z,47.27
2019-04-10T15:30:57.127Z,42.07
2019-04-10T15:33:27.447Z,40.90
2019-04-10T15:35:55.950Z,45.83
2019-04-10T15:38:24.451Z,39.33
2019-04-10T15:40:52.881Z,41.63
2019-04-10T15:43:23.530Z,49.90
2019-04-10T15:45:52.539Z,47.57
2019-04-10T15:48:21.258Z,42.23
2019-04-10T15:50:49.891Z,43.50
2019-04-10T15:53:18.657Z,41.83
2019-04-10T15:55:47.610Z,42.07
2019-04-10T15:58:17.209Z,43.53
2019-04-10T16:00:45.803Z,41.83
2019-04-10T16:03:15.368Z,46.03
2019-04-10T16:05:44.104Z,45.20
2019-04-10T16:08:14.231Z,39.60
2019-04-10T16:10:46.224Z,45.17
2019-04-10T16:13:28.396Z,44.97
2019-04-10T16:15:58.917Z,40.30
2019-04-10T16:18:30.448Z,42.40
2019-04-10T16:20:59.964Z,43.50
2019-04-10T16:23:31.289Z,41.93
2019-04-10T16:26:00.846Z,43.43
2019-04-10T16:28:29.714Z,47.13
2019-04-10T16:30:59.163Z,43.33
2019-04-10T16:33:27.868Z,41.07
2019-04-10T16:35:56.943Z,44.03
2019-04-10T16:38:26.706Z,41.63
2019-04-10T16:40:56.382Z,42.57
2019-04-10T16:43:24.995Z,44.07
2019-04-10T16:45:53.576Z,41.10
2019-04-10T16:48:22.443Z,46.40
2019-04-10T16:50:51.960Z,41.70
2019-04-10T16:53:20.627Z,45.23
2019-04-10T16:55:49.243Z,42.50
2019-04-10T16:58:17.972Z,48.80
2019-04-10T17:00:47.441Z,45.47
2019-04-10T17:03:16.101Z,45.73
2019-04-10T17:05:45.860Z,45.37
2019-04-10T17:08:14.502Z,43.93
2019-04-10T17:10:42.953Z,46.37
2019-04-10T17:13:11.395Z,43.80
2019-04-10T17:15:40.136Z,42.80
2019-04-10T17:18:08.730Z,50.67
2019-04-10T17:20:38.353Z,51.03
2019-04-10T17:23:08.097Z,45.50
2019-04-10T17:25:38.015Z,48.40
2019-04-10T17:28:08.054Z,50.73
2019-04-10T17:30:37.899Z,45.60
2019-04-10T17:33:06.951Z,45.60
2019-04-10T17:35:35.901Z,45.27
2019-04-10T17:38:04.724Z,47.90
2019-04-10T17:40:40.426Z,47.00
2019-04-10T17:43:05.226Z,47.97
2019-04-10T17:45:34.345Z,41.80
2019-04-10T17:48:03.332Z,43.27
2019-04-10T17:50:32.140Z,46.17
2019-04-10T17:53:00.978Z,41.67
2019-04-10T17:55:29.660Z,46.17
2019-04-10T17:57:58.384Z,51.17
2019-04-10T18:00:29.284Z,43.90
2019-04-10T18:02:59.024Z,47.07
2019-04-10T18:05:28.665Z,48.80
2019-04-10T18:07:58.584Z,49.10
2019-04-10T18:10:39.553Z,51.00
2019-04-10T18:12:58.802Z,45.10
2019-04-10T18:15:28.266Z,42.50
2019-04-10T18:17:57.647Z,43.50
2019-04-10T18:20:26.287Z,47.37
2019-04-10T18:22:55.372Z,38.02
2019-04-10T18:25:24.013Z,40.00
2019-04-10T18:27:52.523Z,45.33
2019-04-10T18:30:21.655Z,49.47
2019-04-10T18:32:50.304Z,45.60
2019-04-10T18:35:18.750Z,43.33
2019-04-10T18:37:48.056Z,38.40
2019-04-10T18:40:17.567Z,39.07
2019-04-10T18:42:46.092Z,41.37
2019-04-10T18:45:14.754Z,45.87
2019-04-10T18:47:44.061Z,43.03
2019-04-10T18:50:13.009Z,45.53
2019-04-10T18:52:41.591Z,42.47
2019-04-10T18:55:10.111Z,37.03
2019-04-10T18:57:38.978Z,42.07
2019-04-10T19:00:27.533Z,45.53
2019-04-10T19:02:57.634Z,41.93
2019-04-10T19:05:33.979Z,44.83
2019-04-10T19:08:03.022Z,43.97
2019-04-10T19:10:32.610Z,46.47
2019-04-10T19:13:01.428Z,50.17
2019-04-10T19:15:31.117Z,41.90
2019-04-10T19:17:59.847Z,41.37
2019-04-10T19:20:29.120Z,43.00
2019-04-10T19:22:58.991Z,40.10
2019-04-10T19:25:27.828Z,35.37
2019-04-10T19:27:56.251Z,39.57
2019-04-10T19:30:26.725Z,35.58
2019-04-10T19:32:55.351Z,39.70
2019-04-10T19:35:23.860Z,40.70
2019-04-10T19:37:52.926Z,41.50
2019-04-10T19:40:21.460Z,38.90
2019-04-10T19:42:50.032Z,37.63
2019-04-10T19:45:19.528Z,37.93
2019-04-10T19:47:48.121Z,34.30
2019-04-10T19:50:17.303Z,36.08
2019-04-10T19:52:46.779Z,35.92
2019-04-10T19:55:15.620Z,32.33
2019-04-10T19:57:44.227Z,39.58
2019-04-10T20:00:14.473Z,35.48
2019-04-10T20:02:43.570Z,40.23
2019-04-10T20:05:13.182Z,37.47
2019-04-10T20:07:42.817Z,34.30
2019-04-10T20:10:12.878Z,30.52
2019-04-10T20:12:42.501Z,40.10
2019-04-10T20:15:12.194Z,34.27
2019-04-10T20:17:40.959Z,32.20
2019-04-10T20:20:10.914Z,29.75
2019-04-10T20:22:39.535Z,30.17
2019-04-10T20:25:08.728Z,30.25
2019-04-10T20:27:38.192Z,30.32
2019-04-10T20:30:07.833Z,31.50
2019-04-10T20:32:36.487Z,32.80
2019-04-10T20:35:07.696Z,28.75
2019-04-10T20:37:36.640Z,28.02
2019-04-10T20:40:06.589Z,31.15
2019-04-10T20:42:35.188Z,34.58
2019-04-10T20:45:05.298Z,29.45
2019-04-10T20:47:34.894Z,26.90
2019-04-10T20:50:04.077Z,28.02
2019-04-10T20:52:32.614Z,28.70
2019-04-10T20:55:01.475Z,29.60
2019-04-10T20:57:30.179Z,24.77
2019-04-10T20:59:59.500Z,26.75
2019-04-10T21:02:28.534Z,30.68
2019-04-10T21:05:03.132Z,31.35
2019-04-10T21:07:29.759Z,32.05
2019-04-10T21:09:58.768Z,32.28
2019-04-10T21:12:27.993Z,25.72
2019-04-10T21:14:56.672Z,32.50
2019-04-10T21:17:25.264Z,32.15
2019-04-10T21:19:53.784Z,33.92
2019-04-10T21:22:22.471Z,29.20
2019-04-10T21:24:51.989Z,30.12
2019-04-10T21:27:20.776Z,29.23
2019-04-10T21:30:07.166Z,32.08
2019-04-10T21:32:43.259Z,31.77
2019-04-10T21:35:13.472Z,32.38
2019-04-10T21:37:42.367Z,32.85
2019-04-10T21:40:11.149Z,31.73
2019-04-10T21:42:39.650Z,30.12
2019-04-10T21:45:09.524Z,31.52
2019-04-10T21:47:38.136Z,31.25
2019-04-10T21:50:07.532Z,31.50
2019-04-10T21:52:35.975Z,32.55
2019-04-10T21:55:06.577Z,30.72
2019-04-10T21:57:35.147Z,26.33
2019-04-10T22:00:08.441Z,26.27
2019-04-10T22:02:37.980Z,27.50
2019-04-10T22:05:08.169Z,28.32
2019-04-10T22:07:48.117Z,34.75
2019-04-10T22:10:34.222Z,32.23
2019-04-10T22:13:03.746Z,29.02
2019-04-10T22:15:35.200Z,26.33
2019-04-10T22:18:05.428Z,25.70
2019-04-10T22:20:33.886Z,27.40
2019-04-10T22:23:02.291Z,26.33
2019-04-10T22:25:31.837Z,29.42
2019-04-10T22:28:00.626Z,27.75
2019-04-10T22:30:29.536Z,28.07
2019-04-10T22:32:58.151Z,25.12
2019-04-10T22:35:27.803Z,27.50
2019-04-10T22:37:56.730Z,26.70
2019-04-10T22:40:25.800Z,28.05
2019-04-10T22:42:55.343Z,23.95
2019-04-10T22:45:32.449Z,25.20
2019-04-10T22:48:01.281Z,25.12
2019-04-10T22:50:30.892Z,27.15
2019-04-10T22:52:59.670Z,26.70
2019-04-10T22:55:28.235Z,24.75
2019-04-10T22:57:56.956Z,29.05
2019-04-10T23:00:27.995Z,26.10
2019-04-10T23:02:57.290Z,25.45
2019-04-10T23:05:26.766Z,25.57
2019-04-10T23:07:55.591Z,26.07
2019-04-10T23:10:26.787Z,25.55
2019-04-10T23:13:01.324Z,24.10
2019-04-10T23:15:25.698Z,26.35
2019-04-10T23:17:54.136Z,21.42
2019-04-10T23:20:23.717Z,24.52
2019-04-10T23:22:52.590Z,28.23
2019-04-10T23:25:22.386Z,22.87
2019-04-10T23:27:53.463Z,22.40
2019-04-10T23:30:21.541Z,27.27
2019-04-10T23:32:51.291Z,20.52
2019-04-10T23:35:21.175Z,25.17
2019-04-10T23:37:50.983Z,28.55
2019-04-10T23:40:19.638Z,27.75
2019-04-10T23:43:02.161Z,24.12
2019-04-10T23:45:19.722Z,18.37
2019-04-10T23:47:48.714Z,26.40
2019-04-10T23:50:18.431Z,22.13
2019-04-10T23:52:47.873Z,22.90
2019-04-10T23:55:17.650Z,24.98
2019-04-10T23:57:46.446Z,19.20
